createdAt,value
2016-11-18T00:00:14.675Z,0
2016-11-18T00:01:14.689Z,0
2016-11-18T00:02:14.737Z,0
2016-11-18T00:03:14.721Z,0
2016-11-18T00:04:14.740Z,0
2016-11-18T00:05:14.754Z,0
2016-11-18T00:06:14.777Z,0
2016-11-18T00:07:14.786Z,0
2016-11-18T00:08:14.803Z,0
2016-11-18T00:09:14.828Z,0
2016-11-18T00:10:14.832Z,0
2016-11-18T00:11:14.850Z,0
2016-11-18T00:12:14.872Z,0
2016-11-18T00:13:14.885Z,0
2016-11-18T00:14:14.927Z,0
2016-11-18T00:15:14.918Z,0
2016-11-18T00:16:14.934Z,0
2016-11-18T00:17:14.957Z,0
2016-11-18T00:18:14.967Z,0
2016-11-18T00:19:14.981Z,0
2016-11-18T00:20:15.026Z,0
2016-11-18T00:21:15.008Z,0
2016-11-18T00:22:15.115Z,0
2016-11-18T00:23:15.061Z,0
2016-11-18T00:24:15.071Z,0
2016-11-18T00:25:15.083Z,0
2016-11-18T00:26:15.106Z,0
2016-11-18T00:27:15.124Z,0
2016-11-18T00:28:15.128Z,0
2016-11-18T00:29:15.144Z,0
2016-11-18T00:30:15.172Z,0
2016-11-18T00:31:15.181Z,0
2016-11-18T00:32:15.207Z,0
2016-11-18T00:33:15.214Z,0
2016-11-18T00:34:15.239Z,0
2016-11-18T00:35:15.247Z,0
2016-11-18T00:36:15.255Z,0
2016-11-18T00:37:15.283Z,0
2016-11-18T00:38:15.306Z,0
2016-11-18T00:39:15.318Z,0
2016-11-18T00:40:15.327Z,0
2016-11-18T00:41:15.343Z,0
2016-11-18T00:42:15.366Z,0
2016-11-18T00:43:15.391Z,0
2016-11-18T00:44:15.391Z,0
2016-11-18T00:45:15.413Z,0
2016-11-18T00:46:15.423Z,0
2016-11-18T00:47:15.438Z,0
2016-11-18T00:48:15.556Z,0
2016-11-18T00:49:15.472Z,0
2016-11-18T00:50:15.494Z,0
2016-11-18T00:51:15.510Z,0
2016-11-18T00:52:15.556Z,0
2016-11-18T00:53:15.533Z,0
2016-11-18T00:54:15.566Z,0
2016-11-18T00:55:15.584Z,0
2016-11-18T00:56:15.595Z,0
2016-11-18T00:57:15.604Z,0
2016-11-18T00:58:15.629Z,0
2016-11-18T00:59:15.635Z,0
2016-11-18T01:00:15.669Z,0
2016-11-18T01:01:15.669Z,0
2016-11-18T01:02:15.674Z,0
2016-11-18T01:03:15.711Z,0
2016-11-18T01:04:15.722Z,0
2016-11-18T01:05:15.733Z,0
2016-11-18T01:06:15.759Z,0
2016-11-18T01:07:15.783Z,0
2016-11-18T01:08:15.786Z,0
2016-11-18T01:09:15.842Z,0
2016-11-18T01:10:15.824Z,0
2016-11-18T01:11:15.823Z,0
2016-11-18T01:12:15.847Z,0
2016-11-18T01:13:15.867Z,0
2016-11-18T01:14:15.906Z,0
2016-11-18T01:15:15.903Z,0
2016-11-18T01:16:15.938Z,0
2016-11-18T01:17:15.932Z,0
2016-11-18T01:18:15.946Z,0
2016-11-18T01:19:15.971Z,0
2016-11-18T01:20:15.974Z,0
2016-11-18T01:21:15.994Z,0
2016-11-18T01:22:16.017Z,0
2016-11-18T01:23:16.038Z,0
2016-11-18T01:24:16.041Z,0
2016-11-18T01:25:16.066Z,0
2016-11-18T01:26:16.112Z,0
2016-11-18T01:27:16.090Z,0
2016-11-18T01:28:16.125Z,0
2016-11-18T01:29:16.130Z,0
2016-11-18T01:30:16.149Z,0
2016-11-18T01:31:16.169Z,0
2016-11-18T01:32:16.178Z,0
2016-11-18T01:33:16.197Z,0
2016-11-18T01:34:16.207Z,0
2016-11-18T01:35:16.251Z,0
2016-11-18T01:36:16.240Z,0
2016-11-18T01:37:16.265Z,0
2016-11-18T01:38:16.312Z,0
2016-11-18T01:39:16.369Z,0
2016-11-18T01:40:16.299Z,0
2016-11-18T01:41:16.308Z,0
2016-11-18T01:42:16.341Z,0
2016-11-18T01:43:16.364Z,0
2016-11-18T01:44:16.392Z,0
2016-11-18T01:45:16.406Z,0
2016-11-18T01:46:16.404Z,0
2016-11-18T01:47:16.409Z,0
2016-11-18T01:48:16.437Z,0
2016-11-18T01:49:16.455Z,0
2016-11-18T01:50:16.460Z,0
2016-11-18T01:51:16.497Z,0
2016-11-18T01:52:16.504Z,0
2016-11-18T01:53:16.519Z,0
2016-11-18T01:54:16.549Z,0
2016-11-18T01:55:16.551Z,0
2016-11-18T01:56:16.573Z,0
2016-11-18T01:57:16.586Z,0
2016-11-18T01:58:16.604Z,0
2016-11-18T01:59:16.627Z,0
2016-11-18T02:00:16.636Z,0
2016-11-18T02:01:16.650Z,0
2016-11-18T02:02:16.675Z,0
2016-11-18T02:03:16.672Z,0
2016-11-18T02:04:16.708Z,0
2016-11-18T02:05:16.726Z,0
2016-11-18T02:06:16.727Z,0
2016-11-18T02:07:16.759Z,0
2016-11-18T02:08:16.769Z,0
2016-11-18T02:09:16.787Z,0
2016-11-18T02:10:16.806Z,0
2016-11-18T02:11:16.814Z,0
2016-11-18T02:12:16.825Z,0
2016-11-18T02:13:16.858Z,0
2016-11-18T02:14:16.855Z,0
2016-11-18T02:15:16.867Z,0
2016-11-18T02:16:16.902Z,0
2016-11-18T02:17:16.911Z,0
2016-11-18T02:18:16.923Z,0
2016-11-18T02:19:16.951Z,0
2016-11-18T02:20:16.965Z,0
2016-11-18T02:21:16.989Z,0
2016-11-18T02:22:16.993Z,0
2016-11-18T02:23:17.011Z,0
2016-11-18T02:24:17.045Z,0
2016-11-18T02:25:17.048Z,0
2016-11-18T02:26:17.053Z,0
2016-11-18T02:27:17.074Z,0
2016-11-18T02:28:17.099Z,0
2016-11-18T02:29:17.103Z,0
2016-11-18T02:30:17.143Z,0
2016-11-18T02:31:17.150Z,0
2016-11-18T02:32:17.163Z,0
2016-11-18T02:33:17.180Z,0
2016-11-18T02:34:17.211Z,0
2016-11-18T02:35:17.205Z,0
2016-11-18T02:36:17.253Z,0
2016-11-18T02:37:17.253Z,0
2016-11-18T02:38:17.278Z,0
2016-11-18T02:39:17.262Z,0
2016-11-18T02:40:17.294Z,0
2016-11-18T02:41:17.321Z,0
2016-11-18T02:42:17.324Z,0
2016-11-18T02:43:17.328Z,0
2016-11-18T02:44:17.354Z,0
2016-11-18T02:45:17.378Z,0
2016-11-18T02:46:17.390Z,0
2016-11-18T02:47:17.401Z,0
2016-11-18T02:48:17.433Z,0
2016-11-18T02:49:17.443Z,0
2016-11-18T02:50:17.463Z,0
2016-11-18T02:51:17.475Z,0
2016-11-18T02:52:17.481Z,0
2016-11-18T02:53:17.507Z,0
2016-11-18T02:54:17.527Z,0
2016-11-18T02:55:17.538Z,0
2016-11-18T02:56:17.552Z,0
2016-11-18T02:57:17.575Z,0
2016-11-18T02:58:17.595Z,0
2016-11-18T02:59:17.611Z,0
2016-11-18T03:00:17.620Z,0
2016-11-18T03:01:17.638Z,0
2016-11-18T03:02:17.643Z,0
2016-11-18T03:03:17.673Z,0
2016-11-18T03:04:17.696Z,0
2016-11-18T03:05:17.711Z,0
2016-11-18T03:06:17.728Z,0
2016-11-18T03:07:17.740Z,0
2016-11-18T03:08:17.741Z,0
2016-11-18T03:09:17.763Z,0
2016-11-18T03:10:17.786Z,0
2016-11-18T03:11:17.799Z,0
2016-11-18T03:12:17.827Z,0
2016-11-18T03:13:17.832Z,0
2016-11-18T03:14:17.846Z,0
2016-11-18T03:15:17.865Z,0
2016-11-18T03:16:17.880Z,0
2016-11-18T03:17:17.899Z,0
2016-11-18T03:18:17.918Z,0
2016-11-18T03:19:17.941Z,0
2016-11-18T03:20:17.947Z,0
2016-11-18T03:21:17.964Z,0
2016-11-18T03:22:17.978Z,0
2016-11-18T03:23:17.998Z,0
2016-11-18T03:24:18.018Z,0
2016-11-18T03:25:18.040Z,0
2016-11-18T03:26:18.051Z,0
2016-11-18T03:27:18.073Z,0
2016-11-18T03:28:18.089Z,0
2016-11-18T03:29:18.108Z,0
2016-11-18T03:30:18.116Z,0
2016-11-18T03:31:18.126Z,0
2016-11-18T03:32:18.139Z,0
2016-11-18T03:33:18.244Z,0
2016-11-18T03:34:18.189Z,0
2016-11-18T03:35:18.196Z,0
2016-11-18T03:36:18.209Z,0
2016-11-18T03:37:18.227Z,0
2016-11-18T03:38:18.240Z,0
2016-11-18T03:39:18.260Z,0
2016-11-18T03:40:18.289Z,0
2016-11-18T03:41:18.297Z,0
2016-11-18T03:42:18.304Z,0
2016-11-18T03:43:18.338Z,0
2016-11-18T03:44:18.357Z,0
2016-11-18T03:45:18.353Z,0
2016-11-18T03:46:18.381Z,0
2016-11-18T03:47:18.399Z,0
2016-11-18T03:48:18.418Z,0
2016-11-18T03:49:18.427Z,0
2016-11-18T03:50:18.440Z,0
2016-11-18T03:51:18.477Z,0
2016-11-18T03:52:18.487Z,0
2016-11-18T03:53:18.483Z,0
2016-11-18T03:54:18.502Z,0
2016-11-18T03:55:18.531Z,0
2016-11-18T03:56:18.542Z,0
2016-11-18T03:57:18.589Z,0
2016-11-18T03:58:18.581Z,0
2016-11-18T03:59:18.596Z,0
2016-11-18T04:01:33.467Z,0
2016-11-18T04:02:18.643Z,0
2016-11-18T04:03:18.665Z,0
2016-11-18T04:04:18.672Z,0
2016-11-18T04:05:18.684Z,0
2016-11-18T04:06:18.710Z,0
2016-11-18T04:07:18.733Z,0
2016-11-18T04:08:18.740Z,0
2016-11-18T04:09:18.778Z,0
2016-11-18T04:10:18.778Z,0
2016-11-18T04:11:18.785Z,0
2016-11-18T04:12:18.811Z,0
2016-11-18T04:13:18.818Z,0
2016-11-18T04:14:18.848Z,0
2016-11-18T04:15:18.850Z,0
2016-11-18T04:16:18.882Z,0
2016-11-18T04:17:18.893Z,0
2016-11-18T04:18:18.890Z,0
2016-11-18T04:19:18.924Z,0
2016-11-18T04:20:18.943Z,0
2016-11-18T04:21:18.951Z,0
2016-11-18T04:22:18.975Z,0
2016-11-18T04:23:18.991Z,0
2016-11-18T04:24:19.002Z,0
2016-11-18T04:25:19.026Z,0
2016-11-18T04:26:19.044Z,0
2016-11-18T04:27:19.061Z,0
2016-11-18T04:28:19.060Z,0
2016-11-18T04:29:19.098Z,0
2016-11-18T04:30:19.100Z,0
2016-11-18T04:31:19.126Z,0
2016-11-18T04:32:19.141Z,0
2016-11-18T04:33:19.158Z,0
2016-11-18T04:34:19.163Z,0
2016-11-18T04:35:19.204Z,0
2016-11-18T04:36:19.198Z,0
2016-11-18T04:37:19.223Z,0
2016-11-18T04:38:19.267Z,0
2016-11-18T04:39:19.266Z,0
2016-11-18T04:40:19.275Z,0
2016-11-18T04:41:19.291Z,0
2016-11-18T04:42:19.348Z,0
2016-11-18T04:43:19.317Z,0
2016-11-18T04:44:19.361Z,0
2016-11-18T04:45:19.358Z,0
2016-11-18T04:46:19.405Z,0
2016-11-18T04:47:19.412Z,0
2016-11-18T04:48:19.404Z,0
2016-11-18T04:49:19.411Z,0
2016-11-18T04:50:19.444Z,0
2016-11-18T04:51:19.458Z,0
2016-11-18T04:52:19.473Z,0
2016-11-18T04:53:19.474Z,0
2016-11-18T04:54:19.511Z,0
2016-11-18T04:55:19.519Z,0
2016-11-18T04:56:19.574Z,0
2016-11-18T04:57:19.577Z,0
2016-11-18T04:58:19.571Z,0
2016-11-18T04:59:19.628Z,0
2016-11-18T05:00:19.604Z,0
2016-11-18T05:01:19.611Z,0
2016-11-18T05:02:19.648Z,0
2016-11-18T05:03:19.650Z,0
2016-11-18T05:04:19.671Z,0
2016-11-18T05:05:19.685Z,0
2016-11-18T05:06:19.706Z,0
2016-11-18T05:07:19.765Z,0
2016-11-18T05:08:19.741Z,0
2016-11-18T05:09:19.744Z,0
2016-11-18T05:10:19.769Z,0
2016-11-18T05:11:19.793Z,0
2016-11-18T05:12:19.803Z,0
2016-11-18T05:13:19.826Z,0
2016-11-18T05:14:19.836Z,0
2016-11-18T05:15:19.929Z,0
2016-11-18T05:16:19.881Z,0
2016-11-18T05:17:19.880Z,0
2016-11-18T05:18:19.912Z,0
2016-11-18T05:19:19.929Z,0
2016-11-18T05:20:19.928Z,0
2016-11-18T05:21:19.952Z,0
2016-11-18T05:22:19.975Z,0
2016-11-18T05:23:19.986Z,0
2016-11-18T05:24:20.006Z,0
2016-11-18T05:25:20.029Z,0
2016-11-18T05:26:20.036Z,0
2016-11-18T05:27:20.040Z,0
2016-11-18T05:28:20.085Z,0
2016-11-18T05:29:20.093Z,0
2016-11-18T05:30:34.942Z,0
2016-11-18T05:31:20.122Z,0
2016-11-18T05:32:20.138Z,0
2016-11-18T05:33:20.151Z,0
2016-11-18T05:34:20.228Z,0
2016-11-18T05:35:20.183Z,0
2016-11-18T05:36:20.200Z,0
2016-11-18T05:37:20.217Z,0
2016-11-18T05:38:20.265Z,0
2016-11-18T05:39:20.252Z,0
2016-11-18T05:40:20.354Z,0
2016-11-18T05:41:20.285Z,0
2016-11-18T05:42:20.288Z,0
2016-11-18T05:43:20.311Z,0
2016-11-18T05:44:20.365Z,0
2016-11-18T05:45:20.348Z,0
2016-11-18T05:46:20.377Z,0
2016-11-18T05:47:20.376Z,0
2016-11-18T05:48:20.405Z,0
2016-11-18T05:49:20.402Z,0
2016-11-18T05:50:20.420Z,0
2016-11-18T05:51:20.505Z,0
2016-11-18T05:52:20.465Z,0
2016-11-18T05:53:20.547Z,0
2016-11-18T05:54:20.495Z,0
2016-11-18T05:55:20.519Z,0
2016-11-18T05:56:20.516Z,0
2016-11-18T05:57:20.544Z,0
2016-11-18T05:58:20.539Z,0
2016-11-18T05:59:20.576Z,0
2016-11-18T06:00:20.612Z,0
2016-11-18T06:01:20.599Z,0
2016-11-18T06:02:20.608Z,0
2016-11-18T06:03:20.640Z,0
2016-11-18T06:04:20.641Z,0
2016-11-18T06:05:20.708Z,0
2016-11-18T06:06:21.066Z,0
2016-11-18T06:07:20.681Z,0
2016-11-18T06:08:20.703Z,0
2016-11-18T06:09:20.731Z,0
2016-11-18T06:10:20.722Z,0
2016-11-18T06:11:20.754Z,0
2016-11-18T06:12:20.795Z,0
2016-11-18T06:13:20.781Z,0
2016-11-18T06:14:20.797Z,0
2016-11-18T06:15:20.807Z,0
2016-11-18T06:16:20.829Z,0
2016-11-18T06:17:20.852Z,0
2016-11-18T06:18:20.857Z,0
2016-11-18T06:19:20.899Z,0
2016-11-18T06:20:20.882Z,0
2016-11-18T06:21:20.910Z,0
2016-11-18T06:22:20.954Z,0
2016-11-18T06:23:20.943Z,0
2016-11-18T06:24:20.944Z,0
2016-11-18T06:25:20.964Z,0
2016-11-18T06:26:20.981Z,0
2016-11-18T06:27:20.995Z,0
2016-11-18T06:28:21.010Z,0
2016-11-18T06:29:21.006Z,0
2016-11-18T06:30:21.046Z,0
2016-11-18T06:31:21.059Z,0
2016-11-18T06:32:21.072Z,0
2016-11-18T06:33:21.077Z,0
2016-11-18T06:34:21.127Z,0
2016-11-18T06:35:21.116Z,0
2016-11-18T06:36:21.151Z,0
2016-11-18T06:37:21.144Z,0
2016-11-18T06:38:21.169Z,0
2016-11-18T06:39:21.183Z,0
2016-11-18T06:40:21.246Z,0
2016-11-18T06:41:21.202Z,0
2016-11-18T06:42:21.224Z,0
2016-11-18T06:43:21.235Z,0
2016-11-18T06:44:21.263Z,0
2016-11-18T06:45:21.272Z,0
2016-11-18T06:46:21.286Z,0
2016-11-18T06:47:21.311Z,0
2016-11-18T06:48:21.355Z,0
2016-11-18T06:49:21.342Z,0
2016-11-18T06:50:21.342Z,0
2016-11-18T06:51:21.359Z,0
2016-11-18T06:52:21.383Z,0
2016-11-18T06:53:21.428Z,0
2016-11-18T06:54:21.410Z,0
2016-11-18T06:55:21.427Z,0
2016-11-18T06:56:21.438Z,0
2016-11-18T06:57:21.451Z,0
2016-11-18T06:58:21.465Z,0
2016-11-18T06:59:21.476Z,0
2016-11-18T07:00:21.494Z,0
2016-11-18T07:01:21.594Z,0
2016-11-18T07:02:21.531Z,0
2016-11-18T07:03:21.549Z,0
2016-11-18T07:04:21.554Z,0
2016-11-18T07:05:21.567Z,0
2016-11-18T07:06:21.617Z,0
2016-11-18T07:07:21.597Z,0
2016-11-18T07:08:21.616Z,0
2016-11-18T07:09:21.638Z,0
2016-11-18T07:10:21.644Z,0
2016-11-18T07:11:21.678Z,0
2016-11-18T07:12:21.679Z,0
2016-11-18T07:13:21.680Z,0
2016-11-18T07:14:21.714Z,0
2016-11-18T07:15:21.727Z,0
2016-11-18T07:16:21.738Z,0
2016-11-18T07:17:21.757Z,0
2016-11-18T07:18:21.777Z,0
2016-11-18T07:19:21.776Z,0
2016-11-18T07:20:21.808Z,0
2016-11-18T07:21:21.818Z,0
2016-11-18T07:22:21.852Z,0
2016-11-18T07:23:21.846Z,0
2016-11-18T07:24:21.859Z,0
2016-11-18T07:25:21.878Z,0
2016-11-18T07:26:21.884Z,0
2016-11-18T07:27:21.900Z,0
2016-11-18T07:28:21.923Z,0
2016-11-18T07:29:21.937Z,0
2016-11-18T07:30:21.950Z,0
2016-11-18T07:31:21.959Z,0
2016-11-18T07:32:21.982Z,0
2016-11-18T07:33:22.002Z,0
2016-11-18T07:34:22.010Z,0
2016-11-18T07:35:22.019Z,0
2016-11-18T07:36:22.039Z,0
2016-11-18T07:37:22.049Z,0
2016-11-18T07:38:22.069Z,0
2016-11-18T07:39:22.082Z,0
2016-11-18T07:40:22.102Z,0
2016-11-18T07:41:22.104Z,5
2016-11-18T07:42:22.137Z,5
2016-11-18T07:43:22.146Z,5
2016-11-18T07:44:22.164Z,5
2016-11-18T07:45:22.180Z,5
2016-11-18T07:46:22.192Z,5
2016-11-18T07:47:22.202Z,10
2016-11-18T07:48:22.226Z,10
2016-11-18T07:49:22.244Z,10
2016-11-18T07:50:22.247Z,10
2016-11-18T07:51:22.293Z,10
2016-11-18T07:52:22.306Z,15
2016-11-18T07:53:22.297Z,15
2016-11-18T07:54:22.310Z,15
2016-11-18T07:55:22.316Z,20
2016-11-18T07:56:22.345Z,20
2016-11-18T07:57:22.401Z,25
2016-11-18T07:58:22.373Z,25
2016-11-18T07:59:22.381Z,25
2016-11-18T08:00:22.394Z,20
2016-11-18T08:01:22.402Z,20
2016-11-18T08:02:22.431Z,20
2016-11-18T08:03:22.448Z,20
2016-11-18T08:04:22.456Z,25
2016-11-18T08:05:22.468Z,25
2016-11-18T08:06:22.514Z,30
2016-11-18T08:07:22.496Z,30
2016-11-18T08:08:22.517Z,30
2016-11-18T08:09:22.535Z,35
2016-11-18T08:10:22.540Z,35
2016-11-18T08:11:22.563Z,35
2016-11-18T08:12:22.574Z,35
2016-11-18T08:13:22.591Z,35
2016-11-18T08:14:22.617Z,35
2016-11-18T08:15:22.637Z,35
2016-11-18T08:16:22.653Z,35
2016-11-18T08:17:22.652Z,35
2016-11-18T08:18:22.668Z,35
2016-11-18T08:19:22.682Z,40
2016-11-18T08:20:22.709Z,40
2016-11-18T08:21:22.828Z,40
2016-11-18T08:22:22.728Z,40
2016-11-18T08:23:22.746Z,45
2016-11-18T08:24:22.790Z,45
2016-11-18T08:25:22.768Z,45
2016-11-18T08:26:22.798Z,50
2016-11-18T08:27:22.797Z,50
2016-11-18T08:28:22.820Z,50
2016-11-18T08:29:22.830Z,50
2016-11-18T08:30:22.878Z,50
2016-11-18T08:31:22.878Z,50
2016-11-18T08:32:22.883Z,50
2016-11-18T08:33:22.896Z,50
2016-11-18T08:34:22.966Z,55
2016-11-18T08:35:22.959Z,55
2016-11-18T08:36:22.952Z,60
2016-11-18T08:37:22.965Z,70
2016-11-18T08:38:22.965Z,80
2016-11-18T08:39:22.983Z,85
2016-11-18T08:40:23.005Z,90
2016-11-18T08:41:23.025Z,90
2016-11-18T08:42:23.041Z,90
2016-11-18T08:43:23.039Z,90
2016-11-18T08:44:23.100Z,90
2016-11-18T08:45:23.077Z,90
2016-11-18T08:46:23.090Z,90
2016-11-18T08:47:23.119Z,90
2016-11-18T08:48:23.176Z,90
2016-11-18T08:49:23.141Z,85
2016-11-18T08:50:23.157Z,80
2016-11-18T08:51:23.174Z,80
2016-11-18T08:52:23.195Z,85
2016-11-18T08:53:23.240Z,85
2016-11-18T08:54:23.207Z,90
2016-11-18T08:55:23.223Z,100
2016-11-18T08:56:23.260Z,100
2016-11-18T08:57:23.257Z,100
2016-11-18T08:58:23.286Z,105
2016-11-18T08:59:23.298Z,115
2016-11-18T09:00:23.326Z,150
2016-11-18T09:01:23.327Z,150
2016-11-18T09:02:23.343Z,155
2016-11-18T09:03:23.358Z,150
2016-11-18T09:04:23.704Z,105
2016-11-18T09:05:23.383Z,150
2016-11-18T09:06:23.405Z,150
2016-11-18T09:07:23.415Z,130
2016-11-18T09:08:23.435Z,150
2016-11-18T09:09:23.449Z,130
2016-11-18T09:10:23.483Z,120
2016-11-18T09:11:23.474Z,155
2016-11-18T09:12:23.524Z,160
2016-11-18T09:13:23.520Z,140
2016-11-18T09:14:23.528Z,120
2016-11-18T09:15:23.548Z,120
2016-11-18T09:16:23.592Z,145
2016-11-18T09:17:23.576Z,125
2016-11-18T09:18:23.594Z,130
2016-11-18T09:19:23.616Z,115
2016-11-18T09:20:23.629Z,155
2016-11-18T09:21:23.645Z,160
2016-11-18T09:22:23.648Z,160
2016-11-18T09:23:23.662Z,165
2016-11-18T09:24:23.706Z,165
2016-11-18T09:25:23.709Z,170
2016-11-18T09:26:23.719Z,170
2016-11-18T09:27:23.738Z,160
2016-11-18T09:28:23.821Z,120
2016-11-18T09:29:23.864Z,120
2016-11-18T09:30:23.784Z,130
2016-11-18T09:31:23.805Z,160
2016-11-18T09:32:23.813Z,160
2016-11-18T09:33:23.835Z,140
2016-11-18T09:34:23.858Z,135
2016-11-18T09:35:23.865Z,120
2016-11-18T09:36:23.882Z,95
2016-11-18T09:37:23.891Z,95
2016-11-18T09:38:23.903Z,90
2016-11-18T09:39:23.934Z,90
2016-11-18T09:40:23.940Z,90
2016-11-18T09:41:23.948Z,90
2016-11-18T09:42:23.975Z,95
2016-11-18T09:43:24.071Z,100
2016-11-18T09:44:24.009Z,100
2016-11-18T09:45:24.020Z,105
2016-11-18T09:46:24.044Z,105
2016-11-18T09:47:24.060Z,110
2016-11-18T09:48:24.075Z,105
2016-11-18T09:49:24.084Z,115
2016-11-18T09:50:24.102Z,110
2016-11-18T09:51:24.123Z,105
2016-11-18T09:52:24.129Z,110
2016-11-18T09:53:24.181Z,110
2016-11-18T09:54:24.164Z,120
2016-11-18T09:55:24.185Z,125
2016-11-18T09:56:24.204Z,130
2016-11-18T09:57:24.223Z,125
2016-11-18T09:58:24.245Z,120
2016-11-18T09:59:24.245Z,115
2016-11-18T10:00:24.270Z,120
2016-11-18T10:01:24.273Z,115
2016-11-18T10:02:24.299Z,120
2016-11-18T10:03:24.540Z,120
2016-11-18T10:04:24.337Z,120
2016-11-18T10:05:24.348Z,140
2016-11-18T10:06:24.348Z,155
2016-11-18T10:07:24.380Z,150
2016-11-18T10:08:24.392Z,150
2016-11-18T10:09:24.413Z,140
2016-11-18T10:10:24.425Z,135
2016-11-18T10:11:24.437Z,125
2016-11-18T10:12:24.772Z,135
2016-11-18T10:13:24.475Z,135
2016-11-18T10:14:24.472Z,140
2016-11-18T10:15:24.502Z,140
2016-11-18T10:16:24.520Z,140
2016-11-18T10:17:24.535Z,140
2016-11-18T10:18:24.551Z,140
2016-11-18T10:19:24.580Z,145
2016-11-18T10:20:24.584Z,140
2016-11-18T10:21:24.595Z,125
2016-11-18T10:22:24.613Z,115
2016-11-18T10:23:24.663Z,105
2016-11-18T10:24:24.646Z,100
2016-11-18T10:25:24.663Z,95
2016-11-18T10:26:24.685Z,90
2016-11-18T10:27:24.707Z,95
2016-11-18T10:28:24.730Z,95
2016-11-18T10:29:24.734Z,105
2016-11-18T10:30:24.778Z,110
2016-11-18T10:31:24.760Z,115
2016-11-18T10:32:24.779Z,115
2016-11-18T10:33:24.803Z,115
2016-11-18T10:34:24.810Z,115
2016-11-18T10:35:24.827Z,110
2016-11-18T10:36:24.845Z,110
2016-11-18T10:37:24.864Z,110
2016-11-18T10:38:24.883Z,110
2016-11-18T10:39:24.880Z,110
2016-11-18T10:40:24.901Z,115
2016-11-18T10:41:25.217Z,125
2016-11-18T10:42:24.981Z,125
2016-11-18T10:43:24.982Z,135
2016-11-18T10:44:24.972Z,130
2016-11-18T10:45:25.008Z,125
2016-11-18T10:46:25.001Z,130
2016-11-18T10:47:25.012Z,135
2016-11-18T10:48:25.043Z,140
2016-11-18T10:49:25.047Z,150
2016-11-18T10:50:25.066Z,160
2016-11-18T10:51:25.094Z,155
2016-11-18T10:52:25.103Z,170
2016-11-18T10:53:25.125Z,185
2016-11-18T10:54:25.140Z,165
2016-11-18T10:55:25.229Z,140
2016-11-18T10:56:25.172Z,140
2016-11-18T10:57:25.179Z,125
2016-11-18T10:58:25.197Z,110
2016-11-18T10:59:25.218Z,90
2016-11-18T11:00:25.236Z,75
2016-11-18T11:01:25.295Z,50
2016-11-18T11:02:25.272Z,40
2016-11-18T11:03:25.275Z,35
2016-11-18T11:04:25.303Z,30
2016-11-18T11:05:25.344Z,25
2016-11-18T11:06:25.347Z,30
2016-11-18T11:07:25.350Z,35
2016-11-18T11:08:25.367Z,35
2016-11-18T11:09:25.384Z,40
2016-11-18T11:10:25.408Z,45
2016-11-18T11:11:25.414Z,50
2016-11-18T11:12:25.430Z,60
2016-11-18T11:13:25.485Z,60
2016-11-18T11:14:25.488Z,45
2016-11-18T11:15:25.469Z,30
2016-11-18T11:16:25.482Z,20
2016-11-18T11:17:25.512Z,20
2016-11-18T11:18:25.528Z,20
2016-11-18T11:19:25.541Z,20
2016-11-18T11:20:25.566Z,30
2016-11-18T11:21:25.562Z,35
2016-11-18T11:22:25.581Z,40
2016-11-18T11:23:25.595Z,40
2016-11-18T11:24:25.620Z,35
2016-11-18T11:25:25.627Z,35
2016-11-18T11:26:25.646Z,40
2016-11-18T11:27:25.654Z,40
2016-11-18T11:28:25.682Z,45
2016-11-18T11:29:25.689Z,50
2016-11-18T11:30:25.704Z,55
2016-11-18T11:31:25.706Z,60
2016-11-18T11:32:25.745Z,60
2016-11-18T11:33:25.745Z,60
2016-11-18T11:34:25.764Z,60
2016-11-18T11:35:25.779Z,60
2016-11-18T11:36:25.792Z,60
2016-11-18T11:37:25.847Z,65
2016-11-18T11:38:25.820Z,65
2016-11-18T11:39:25.830Z,70
2016-11-18T11:40:25.846Z,70
2016-11-18T11:41:25.871Z,70
2016-11-18T11:42:25.897Z,65
2016-11-18T11:43:25.893Z,65
2016-11-18T11:44:25.924Z,65
2016-11-18T11:45:25.926Z,60
2016-11-18T11:46:25.950Z,60
2016-11-18T11:47:25.968Z,55
2016-11-18T11:48:25.978Z,55
2016-11-18T11:49:25.985Z,60
2016-11-18T11:50:26.000Z,60
2016-11-18T11:51:26.030Z,65
2016-11-18T11:52:26.027Z,75
2016-11-18T11:53:26.055Z,80
2016-11-18T11:54:26.067Z,70
2016-11-18T11:55:26.086Z,70
2016-11-18T11:56:26.087Z,60
2016-11-18T11:57:26.107Z,55
2016-11-18T11:58:26.122Z,45
2016-11-18T11:59:26.138Z,35
2016-11-18T12:00:26.166Z,35
2016-11-18T12:01:26.172Z,35
2016-11-18T12:02:26.227Z,35
2016-11-18T12:03:26.194Z,35
2016-11-18T12:04:26.256Z,35
2016-11-18T12:05:26.221Z,35
2016-11-18T12:06:26.233Z,40
2016-11-18T12:07:26.336Z,50
2016-11-18T12:08:26.287Z,55
2016-11-18T12:09:26.299Z,60
2016-11-18T12:10:26.301Z,65
2016-11-18T12:11:26.322Z,65
2016-11-18T12:12:26.338Z,70
2016-11-18T12:13:26.343Z,60
2016-11-18T12:14:26.365Z,60
2016-11-18T12:15:26.377Z,70
2016-11-18T12:16:26.395Z,75
2016-11-18T12:17:26.401Z,75
2016-11-18T12:18:26.430Z,75
2016-11-18T12:19:26.480Z,75
2016-11-18T12:20:26.453Z,80
2016-11-18T12:21:26.524Z,75
2016-11-18T12:22:26.480Z,65
2016-11-18T12:23:26.489Z,65
2016-11-18T12:24:26.518Z,70
2016-11-18T12:25:26.527Z,75
2016-11-18T12:26:26.552Z,75
2016-11-18T12:27:26.560Z,75
2016-11-18T12:28:26.580Z,75
2016-11-18T12:29:26.634Z,80
2016-11-18T12:30:26.601Z,80
2016-11-18T12:31:26.629Z,75
2016-11-18T12:32:26.667Z,75
2016-11-18T12:33:26.649Z,85
2016-11-18T12:34:26.672Z,95
2016-11-18T12:35:26.682Z,95
2016-11-18T12:36:26.703Z,90
2016-11-18T12:37:26.704Z,85
2016-11-18T12:38:26.723Z,80
2016-11-18T12:39:26.796Z,85
2016-11-18T12:40:26.763Z,100
2016-11-18T12:41:26.770Z,110
2016-11-18T12:42:26.783Z,140
2016-11-18T12:43:26.845Z,145
2016-11-18T12:44:26.808Z,140
2016-11-18T12:45:26.832Z,135
2016-11-18T12:46:26.843Z,130
2016-11-18T12:47:26.863Z,120
2016-11-18T12:48:26.877Z,120
2016-11-18T12:49:26.888Z,115
2016-11-18T12:50:26.894Z,110
2016-11-18T12:51:26.917Z,110
2016-11-18T12:52:26.984Z,110
2016-11-18T12:53:26.953Z,105
2016-11-18T12:54:27.014Z,105
2016-11-18T12:55:26.990Z,100
2016-11-18T12:56:26.997Z,100
2016-11-18T12:57:27.013Z,105
2016-11-18T12:58:27.027Z,100
2016-11-18T12:59:27.037Z,100
2016-11-18T13:00:27.062Z,100
2016-11-18T13:01:27.078Z,95
2016-11-18T13:02:27.082Z,95
2016-11-18T13:03:27.099Z,95
2016-11-18T13:04:27.128Z,95
2016-11-18T13:05:27.131Z,95
2016-11-18T13:06:27.142Z,95
2016-11-18T13:07:27.173Z,95
2016-11-18T13:08:27.181Z,95
2016-11-18T13:09:27.228Z,95
2016-11-18T13:10:27.206Z,95
2016-11-18T13:11:27.235Z,90
2016-11-18T13:12:27.243Z,85
2016-11-18T13:13:27.263Z,85
2016-11-18T13:14:27.276Z,80
2016-11-18T13:15:27.308Z,80
2016-11-18T13:16:27.305Z,80
2016-11-18T13:17:27.339Z,80
2016-11-18T13:18:27.337Z,80
2016-11-18T13:19:27.356Z,80
2016-11-18T13:20:27.360Z,85
2016-11-18T13:21:27.377Z,95
2016-11-18T13:22:27.407Z,100
2016-11-18T13:23:27.400Z,100
2016-11-18T13:24:27.422Z,100
2016-11-18T13:25:27.442Z,105
2016-11-18T13:26:27.456Z,110
2016-11-18T13:27:27.468Z,105
2016-11-18T13:28:27.485Z,105
2016-11-18T13:29:27.525Z,100
2016-11-18T13:30:27.531Z,100
2016-11-18T13:31:27.546Z,85
2016-11-18T13:32:27.594Z,90
2016-11-18T13:33:27.568Z,95
2016-11-18T13:34:27.569Z,85
2016-11-18T13:35:27.594Z,85
2016-11-18T13:36:27.616Z,85
2016-11-18T13:37:27.629Z,90
2016-11-18T13:38:27.648Z,80
2016-11-18T13:39:27.660Z,75
2016-11-18T13:40:27.659Z,75
2016-11-18T13:41:27.689Z,75
2016-11-18T13:42:27.690Z,75
2016-11-18T13:43:27.719Z,75
2016-11-18T13:44:27.734Z,75
2016-11-18T13:45:27.743Z,75
2016-11-18T13:46:27.752Z,75
2016-11-18T13:47:27.778Z,75
2016-11-18T13:48:27.819Z,80
2016-11-18T13:49:27.824Z,80
2016-11-18T13:50:27.820Z,80
2016-11-18T13:51:27.819Z,80
2016-11-18T13:52:27.855Z,80
2016-11-18T13:53:27.866Z,75
2016-11-18T13:54:27.873Z,85
2016-11-18T13:55:27.887Z,85
2016-11-18T13:56:27.902Z,80
2016-11-18T13:57:27.939Z,90
2016-11-18T13:58:27.934Z,90
2016-11-18T13:59:27.939Z,85
2016-11-18T14:00:27.965Z,85
2016-11-18T14:01:27.986Z,85
2016-11-18T14:02:28.015Z,85
2016-11-18T14:03:28.015Z,80
2016-11-18T14:04:28.029Z,75
2016-11-18T14:05:28.038Z,70
2016-11-18T14:06:28.053Z,60
2016-11-18T14:07:28.064Z,60
2016-11-18T14:08:28.076Z,50
2016-11-18T14:09:28.097Z,45
2016-11-18T14:10:28.128Z,45
2016-11-18T14:11:28.124Z,45
2016-11-18T14:12:28.153Z,50
2016-11-18T14:13:28.162Z,60
2016-11-18T14:14:28.185Z,60
2016-11-18T14:15:28.197Z,60
2016-11-18T14:16:28.206Z,55
2016-11-18T14:17:28.230Z,55
2016-11-18T14:18:28.236Z,50
2016-11-18T14:19:28.256Z,50
2016-11-18T14:20:28.268Z,45
2016-11-18T14:21:28.287Z,45
2016-11-18T14:22:28.283Z,40
2016-11-18T14:23:28.313Z,35
2016-11-18T14:24:28.324Z,35
2016-11-18T14:25:28.357Z,40
2016-11-18T14:26:28.354Z,35
2016-11-18T14:27:28.367Z,30
2016-11-18T14:28:28.393Z,35